sensor_id;sensor_type;location;lat;lon;timestamp;pressure;altitude;pressure_sealevel;temperature;humidity
37202;BME280;37799;52.390;6.136;2023-02-04T00:01:18;103173.13;;;6.18;100.00
37202;BME280;37799;52.390;6.136;2023-02-04T00:03:43;103174.00;;;6.19;100.00
37202;BME280;37799;52.390;6.136;2023-02-04T00:06:09;103175.81;;;6.23;100.00
37202;BME280;37799;52.390;6.136;2023-02-04T00:08:34;103178.66;;;6.32;100.00
37202;BME280;37799;52.390;6.136;2023-02-04T00:11:01;103181.16;;;6.29;100.00
37202;BME280;37799;52.390;6.136;2023-02-04T00:13:27;103176.94;;;6.31;100.00
37202;BME280;37799;52.390;6.136;2023-02-04T00:15:52;103185.25;;;6.22;100.00
37202;BME280;37799;52.390;6.136;2023-02-04T00:18:17;103179.22;;;6.22;100.00
37202;BME280;37799;52.390;6.136;2023-02-04T00:20:43;103192.06;;;6.20;100.00
37202;BME280;37799;52.390;6.136;2023-02-04T00:23:08;103195.66;;;6.26;100.00
37202;BME280;37799;52.390;6.136;2023-02-04T00:25:33;103191.25;;;6.23;100.00
37202;BME280;37799;52.390;6.136;2023-02-04T00:27:58;103198.44;;;6.33;100.00
37202;BME280;37799;52.390;6.136;2023-02-04T00:30:24;103194.50;;;6.46;100.00
37202;BME280;37799;52.390;6.136;2023-02-04T00:32:49;103190.59;;;6.29;100.00
37202;BME280;37799;52.390;6.136;2023-02-04T00:35:18;103199.22;;;6.31;100.00
37202;BME280;37799;52.390;6.136;2023-02-04T00:37:44;103193.47;;;6.39;100.00
37202;BME280;37799;52.390;6.136;2023-02-04T00:40:10;103197.69;;;6.37;100.00
37202;BME280;37799;52.390;6.136;2023-02-04T00:42:35;103199.13;;;6.28;100.00
37202;BME280;37799;52.390;6.136;2023-02-04T00:45:00;103199.03;;;6.25;100.00
37202;BME280;37799;52.390;6.136;2023-02-04T00:47:26;103206.06;;;6.30;100.00
37202;BME280;37799;52.390;6.136;2023-02-04T00:49:51;103204.75;;;6.14;100.00
37202;BME280;37799;52.390;6.136;2023-02-04T00:52:16;103210.06;;;6.20;100.00
37202;BME280;37799;52.390;6.136;2023-02-04T00:54:41;103216.00;;;6.18;100.00
37202;BME280;37799;52.390;6.136;2023-02-04T00:57:07;103212.72;;;6.24;100.00
37202;BME280;37799;52.390;6.136;2023-02-04T00:59:32;103217.81;;;6.22;100.00
37202;BME280;37799;52.390;6.136;2023-02-04T01:01:57;103223.78;;;6.21;100.00
37202;BME280;37799;52.390;6.136;2023-02-04T01:04:24;103223.84;;;6.22;100.00
37202;BME280;37799;52.390;6.136;2023-02-04T01:06:50;103216.91;;;6.20;100.00
37202;BME280;37799;52.390;6.136;2023-02-04T01:09:15;103226.38;;;6.21;100.00
37202;BME280;37799;52.390;6.136;2023-02-04T01:11:40;103232.34;;;6.20;100.00
37202;BME280;37799;52.390;6.136;2023-02-04T01:14:06;103226.41;;;6.22;100.00
37202;BME280;37799;52.390;6.136;2023-02-04T01:16:32;103226.53;;;6.26;100.00
37202;BME280;37799;52.390;6.136;2023-02-04T01:18:57;103231.91;;;6.35;100.00
37202;BME280;37799;52.390;6.136;2023-02-04T01:21:24;103235.38;;;6.35;100.00
37202;BME280;37799;52.390;6.136;2023-02-04T01:23:50;103239.59;;;6.33;100.00
37202;BME280;37799;52.390;6.136;2023-02-04T01:26:17;103234.38;;;6.30;100.00
37202;BME280;37799;52.390;6.136;2023-02-04T01:28:42;103241.84;;;6.22;100.00
37202;BME280;37799;52.390;6.136;2023-02-04T01:31:08;103256.25;;;6.16;100.00
37202;BME280;37799;52.390;6.136;2023-02-04T01:33:33;103257.09;;;6.16;100.00
37202;BME280;37799;52.390;6.136;2023-02-04T01:35:58;103262.28;;;6.18;100.00
37202;BME280;37799;52.390;6.136;2023-02-04T01:38:24;103255.00;;;6.32;100.00
37202;BME280;37799;52.390;6.136;2023-02-04T01:40:49;103258.34;;;6.29;100.00
37202;BME280;37799;52.390;6.136;2023-02-04T01:43:15;103260.84;;;6.26;100.00
37202;BME280;37799;52.390;6.136;2023-02-04T01:45:43;103263.97;;;6.44;100.00
37202;BME280;37799;52.390;6.136;2023-02-04T01:48:08;103263.50;;;6.29;100.00
37202;BME280;37799;52.390;6.136;2023-02-04T01:50:34;103264.28;;;6.27;100.00
37202;BME280;37799;52.390;6.136;2023-02-04T01:53:00;103270.84;;;6.17;100.00
37202;BME280;37799;52.390;6.136;2023-02-04T01:55:28;103278.66;;;6.20;100.00
37202;BME280;37799;52.390;6.136;2023-02-04T01:57:54;103281.22;;;6.20;100.00
37202;BME280;37799;52.390;6.136;2023-02-04T02:00:25;103286.31;;;6.18;100.00
37202;BME280;37799;52.390;6.136;2023-02-04T02:02:52;103278.47;;;6.14;100.00
37202;BME280;37799;52.390;6.136;2023-02-04T02:05:24;103280.31;;;6.18;100.00
37202;BME280;37799;52.390;6.136;2023-02-04T02:07:54;103279.34;;;6.14;100.00
37202;BME280;37799;52.390;6.136;2023-02-04T02:10:20;103283.63;;;6.14;100.00
37202;BME280;37799;52.390;6.136;2023-02-04T02:12:47;103287.94;;;6.15;100.00
37202;BME280;37799;52.390;6.136;2023-02-04T02:15:13;103286.81;;;6.07;100.00
37202;BME280;37799;52.390;6.136;2023-02-04T02:17:39;103291.94;;;6.07;100.00
37202;BME280;37799;52.390;6.136;2023-02-04T02:20:08;103288.47;;;6.05;100.00
37202;BME280;37799;52.390;6.136;2023-02-04T02:22:48;103291.66;;;5.98;100.00
37202;BME280;37799;52.390;6.136;2023-02-04T02:25:16;103288.03;;;5.91;100.00
37202;BME280;37799;52.390;6.136;2023-02-04T02:27:42;103295.34;;;5.80;100.00
37202;BME280;37799;52.390;6.136;2023-02-04T02:30:09;103291.22;;;5.85;100.00
37202;BME280;37799;52.390;6.136;2023-02-04T02:32:36;103291.66;;;5.98;100.00
37202;BME280;37799;52.390;6.136;2023-02-04T02:35:02;103296.34;;;5.85;100.00
37202;BME280;37799;52.390;6.136;2023-02-04T02:37:28;103294.13;;;5.95;100.00
37202;BME280;37799;52.390;6.136;2023-02-04T02:39:54;103296.69;;;5.95;100.00
37202;BME280;37799;52.390;6.136;2023-02-04T02:42:19;103287.25;;;5.94;100.00
37202;BME280;37799;52.390;6.136;2023-02-04T02:44:45;103297.44;;;5.90;100.00
37202;BME280;37799;52.390;6.136;2023-02-04T02:47:16;103299.38;;;5.98;100.00
37202;BME280;37799;52.390;6.136;2023-02-04T02:49:45;103298.34;;;5.93;100.00
37202;BME280;37799;52.390;6.136;2023-02-04T02:52:12;103300.88;;;5.91;100.00
37202;BME280;37799;52.390;6.136;2023-02-04T02:54:38;103299.88;;;5.87;100.00
37202;BME280;37799;52.390;6.136;2023-02-04T02:57:11;103309.34;;;5.88;100.00
37202;BME280;37799;52.390;6.136;2023-02-04T02:59:37;103309.94;;;5.81;100.00
37202;BME280;37799;52.390;6.136;2023-02-04T03:02:02;103310.63;;;5.76;100.00
37202;BME280;37799;52.390;6.136;2023-02-04T03:04:30;103303.75;;;5.75;100.00
37202;BME280;37799;52.390;6.136;2023-02-04T03:06:59;103301.22;;;5.76;100.00
37202;BME280;37799;52.390;6.136;2023-02-04T03:09:25;103299.47;;;5.75;100.00
37202;BME280;37799;52.390;6.136;2023-02-04T03:11:51;103307.19;;;5.75;100.00
37202;BME280;37799;52.390;6.136;2023-02-04T03:14:17;103309.75;;;5.75;100.00
37202;BME280;37799;52.390;6.136;2023-02-04T03:16:43;103319.25;;;5.78;100.00
37202;BME280;37799;52.390;6.136;2023-02-04T03:19:09;103316.75;;;5.79;100.00
37202;BME280;37799;52.390;6.136;2023-02-04T03:21:35;103324.25;;;5.73;100.00
37202;BME280;37799;52.390;6.136;2023-02-04T03:24:02;103324.25;;;5.73;100.00
37202;BME280;37799;52.390;6.136;2023-02-04T03:26:27;103326.69;;;5.70;100.00
37202;BME280;37799;52.390;6.136;2023-02-04T03:28:53;103319.03;;;5.72;100.00
37202;BME280;37799;52.390;6.136;2023-02-04T03:31:19;103323.53;;;5.77;100.00
37202;BME280;37799;52.390;6.136;2023-02-04T03:33:44;103331.06;;;5.73;100.00
37202;BME280;37799;52.390;6.136;2023-02-04T03:36:10;103330.31;;;5.75;100.00
37202;BME280;37799;52.390;6.136;2023-02-04T03:38:35;103322.56;;;5.74;100.00
37202;BME280;37799;52.390;6.136;2023-02-04T03:41:00;103317.47;;;5.75;100.00
37202;BME280;37799;52.390;6.136;2023-02-04T03:43:26;103334.41;;;5.70;100.00
37202;BME280;37799;52.390;6.136;2023-02-04T03:45:51;103335.34;;;5.72;100.00
37202;BME280;37799;52.390;6.136;2023-02-04T03:48:17;103327.47;;;5.68;100.00
37202;BME280;37799;52.390;6.136;2023-02-04T03:50:42;103339.47;;;5.67;100.00
37202;BME280;37799;52.390;6.136;2023-02-04T03:53:08;103341.84;;;5.61;100.00
37202;BME280;37799;52.390;6.136;2023-02-04T03:55:34;103334.03;;;5.59;100.00
37202;BME280;37799;52.390;6.136;2023-02-04T03:58:00;103341.06;;;5.63;100.00
37202;BME280;37799;52.390;6.136;2023-02-04T04:00:26;103340.09;;;5.60;100.00
37202;BME280;37799;52.390;6.136;2023-02-04T04:02:52;103333.91;;;5.55;100.00
37202;BME280;37799;52.390;6.136;2023-02-04T04:05:17;103334.72;;;5.54;100.00
37202;BME280;37799;52.390;6.136;2023-02-04T04:07:42;103344.13;;;5.53;100.00
37202;BME280;37799;52.390;6.136;2023-02-04T04:10:09;103339.81;;;5.52;100.00
37202;BME280;37799;52.390;6.136;2023-02-04T04:12:34;103344.94;;;5.52;100.00
37202;BME280;37799;52.390;6.136;2023-02-04T04:15:00;103344.91;;;5.51;100.00
37202;BME280;37799;52.390;6.136;2023-02-04T04:17:25;103357.03;;;5.55;100.00
37202;BME280;37799;52.390;6.136;2023-02-04T04:19:51;103353.72;;;5.59;100.00
37202;BME280;37799;52.390;6.136;2023-02-04T04:22:16;103366.38;;;5.53;100.00
37202;BME280;37799;52.390;6.136;2023-02-04T04:24:41;103361.28;;;5.54;100.00
37202;BME280;37799;52.390;6.136;2023-02-04T04:27:07;103368.13;;;5.54;100.00
37202;BME280;37799;52.390;6.136;2023-02-04T04:29:32;103357.50;;;5.45;100.00
37202;BME280;37799;52.390;6.136;2023-02-04T04:31:57;103362.72;;;5.46;100.00
37202;BME280;37799;52.390;6.136;2023-02-04T04:34:22;103368.53;;;5.41;100.00
37202;BME280;37799;52.390;6.136;2023-02-04T04:36:48;103375.41;;;5.42;100.00
37202;BME280;37799;52.390;6.136;2023-02-04T04:39:13;103370.78;;;5.33;100.00
37202;BME280;37799;52.390;6.136;2023-02-04T04:41:38;103374.19;;;5.32;100.00
37202;BME280;37799;52.390;6.136;2023-02-04T04:44:04;103388.53;;;5.25;100.00
37202;BME280;37799;52.390;6.136;2023-02-04T04:46:29;103389.81;;;5.14;100.00
37202;BME280;37799;52.390;6.136;2023-02-04T04:48:54;103389.59;;;5.08;100.00
37202;BME280;37799;52.390;6.136;2023-02-04T04:51:20;103405.78;;;5.07;100.00
37202;BME280;37799;52.390;6.136;2023-02-04T04:53:45;103403.94;;;5.03;100.00
37202;BME280;37799;52.390;6.136;2023-02-04T04:56:10;103403.72;;;4.97;100.00
37202;BME280;37799;52.390;6.136;2023-02-04T04:58:36;103410.66;;;4.99;100.00
37202;BME280;37799;52.390;6.136;2023-02-04T05:01:01;103405.41;;;4.96;100.00
37202;BME280;37799;52.390;6.136;2023-02-04T05:03:26;103409.53;;;4.93;100.00
37202;BME280;37799;52.390;6.136;2023-02-04T05:05:51;103413.63;;;4.88;100.00
37202;BME280;37799;52.390;6.136;2023-02-04T05:08:17;103415.31;;;4.87;100.00
37202;BME280;37799;52.390;6.136;2023-02-04T05:10:44;103422.84;;;4.83;100.00
37202;BME280;37799;52.390;6.136;2023-02-04T05:13:10;103424.34;;;4.78;100.00
37202;BME280;37799;52.390;6.136;2023-02-04T05:15:35;103418.34;;;4.77;100.00
37202;BME280;37799;52.390;6.136;2023-02-04T05:18:01;103426.97;;;4.79;100.00
37202;BME280;37799;52.390;6.136;2023-02-04T05:20:26;103424.25;;;4.74;100.00
37202;BME280;37799;52.390;6.136;2023-02-04T05:22:51;103420.91;;;4.77;100.00
37202;BME280;37799;52.390;6.136;2023-02-04T05:25:17;103429.69;;;4.82;100.00
37202;BME280;37799;52.390;6.136;2023-02-04T05:27:43;103415.94;;;4.82;100.00
37202;BME280;37799;52.390;6.136;2023-02-04T05:30:10;103420.28;;;4.83;100.00
37202;BME280;37799;52.390;6.136;2023-02-04T05:32:36;103428.00;;;4.83;100.00
37202;BME280;37799;52.390;6.136;2023-02-04T05:35:02;103422.72;;;4.80;100.00
37202;BME280;37799;52.390;6.136;2023-02-04T05:37:27;103417.84;;;4.86;100.00
37202;BME280;37799;52.390;6.136;2023-02-04T05:39:53;103415.53;;;4.93;100.00
37202;BME280;37799;52.390;6.136;2023-02-04T05:42:18;103418.25;;;4.96;100.00
37202;BME280;37799;52.390;6.136;2023-02-04T05:44:43;103419.19;;;4.98;100.00
37202;BME280;37799;52.390;6.136;2023-02-04T05:47:08;103422.69;;;5.00;100.00
37202;BME280;37799;52.390;6.136;2023-02-04T05:49:34;103424.53;;;5.04;100.00
37202;BME280;37799;52.390;6.136;2023-02-04T05:51:59;103426.34;;;5.07;100.00
37202;BME280;37799;52.390;6.136;2023-02-04T05:54:24;103423.03;;;5.10;100.00
37202;BME280;37799;52.390;6.136;2023-02-04T05:56:50;103434.91;;;5.08;100.00
37202;BME280;37799;52.390;6.136;2023-02-04T05:59:16;103426.28;;;5.06;100.00
37202;BME280;37799;52.390;6.136;2023-02-04T06:01:41;103427.16;;;5.06;100.00
37202;BME280;37799;52.390;6.136;2023-02-04T06:04:06;103431.44;;;5.06;100.00
37202;BME280;37799;52.390;6.136;2023-02-04T06:06:32;103438.09;;;5.00;100.00
37202;BME280;37799;52.390;6.136;2023-02-04T06:08:57;103434.34;;;4.92;100.00
37202;BME280;37799;52.390;6.136;2023-02-04T06:11:22;103427.19;;;4.84;100.00
37202;BME280;37799;52.390;6.136;2023-02-04T06:13:48;103440.69;;;4.80;100.00
37202;BME280;37799;52.390;6.136;2023-02-04T06:16:13;103439.47;;;4.70;100.00
37202;BME280;37799;52.390;6.136;2023-02-04T06:18:38;103443.47;;;4.63;100.00
37202;BME280;37799;52.390;6.136;2023-02-04T06:21:04;103439.91;;;4.60;100.00
37202;BME280;37799;52.390;6.136;2023-02-04T06:23:30;103443.28;;;4.59;100.00
37202;BME280;37799;52.390;6.136;2023-02-04T06:25:55;103445.91;;;4.60;100.00
37202;BME280;37799;52.390;6.136;2023-02-04T06:28:21;103454.44;;;4.59;100.00
37202;BME280;37799;52.390;6.136;2023-02-04T06:30:46;103464.56;;;4.56;100.00
37202;BME280;37799;52.390;6.136;2023-02-04T06:33:13;103467.16;;;4.56;100.00
37202;BME280;37799;52.390;6.136;2023-02-04T06:35:38;103472.28;;;4.56;100.00
37202;BME280;37799;52.390;6.136;2023-02-04T06:38:04;103459.28;;;4.53;100.00
37202;BME280;37799;52.390;6.136;2023-02-04T06:40:29;103466.19;;;4.54;100.00
37202;BME280;37799;52.390;6.136;2023-02-04T06:42:54;103459.19;;;4.50;100.00
37202;BME280;37799;52.390;6.136;2023-02-04T06:45:20;103467.81;;;4.52;100.00
37202;BME280;37799;52.390;6.136;2023-02-04T06:47:45;103464.44;;;4.53;100.00
37202;BME280;37799;52.390;6.136;2023-02-04T06:50:10;103472.56;;;4.64;100.00
37202;BME280;37799;52.390;6.136;2023-02-04T06:52:36;103475.06;;;4.62;100.00
37202;BME280;37799;52.390;6.136;2023-02-04T06:55:01;103483.22;;;4.52;100.00
37202;BME280;37799;52.390;6.136;2023-02-04T06:57:27;103484.22;;;4.56;100.00
37202;BME280;37799;52.390;6.136;2023-02-04T06:59:52;103484.66;;;4.66;100.00
37202;BME280;37799;52.390;6.136;2023-02-04T07:02:18;103488.09;;;4.67;100.00
37202;BME280;37799;52.390;6.136;2023-02-04T07:04:43;103487.03;;;4.62;100.00
37202;BME280;37799;52.390;6.136;2023-02-04T07:07:09;103501.28;;;4.55;100.00
37202;BME280;37799;52.390;6.136;2023-02-04T07:09:35;103507.44;;;4.59;100.00
37202;BME280;37799;52.390;6.136;2023-02-04T07:12:01;103507.63;;;4.63;100.00
37202;BME280;37799;52.390;6.136;2023-02-04T07:14:26;103510.06;;;4.60;100.00
37202;BME280;37799;52.390;6.136;2023-02-04T07:16:52;103511.44;;;4.52;100.00
37202;BME280;37799;52.390;6.136;2023-02-04T07:19:17;103507.88;;;4.49;100.00
37202;BME280;37799;52.390;6.136;2023-02-04T07:21:42;103502.63;;;4.46;100.00
37202;BME280;37799;52.390;6.136;2023-02-04T07:24:07;103507.75;;;4.46;100.00
37202;BME280;37799;52.390;6.136;2023-02-04T07:26:33;103510.50;;;4.50;100.00
37202;BME280;37799;52.390;6.136;2023-02-04T07:28:58;103514.00;;;4.52;100.00
37202;BME280;37799;52.390;6.136;2023-02-04T07:31:24;103517.44;;;4.53;100.00
37202;BME280;37799;52.390;6.136;2023-02-04T07:33:49;103520.00;;;4.53;100.00
37202;BME280;37799;52.390;6.136;2023-02-04T07:36:14;103519.13;;;4.52;100.00
37202;BME280;37799;52.390;6.136;2023-02-04T07:38:39;103523.66;;;4.58;100.00
37202;BME280;37799;52.390;6.136;2023-02-04T07:41:05;103528.84;;;4.59;100.00
37202;BME280;37799;52.390;6.136;2023-02-04T07:43:30;103528.91;;;4.61;100.00
37202;BME280;37799;52.390;6.136;2023-02-04T07:45:55;103538.81;;;4.72;100.00
37202;BME280;37799;52.390;6.136;2023-02-04T07:48:21;103541.88;;;4.85;100.00
37202;BME280;37799;52.390;6.136;2023-02-04T07:50:46;103551.91;;;4.99;100.00
37202;BME280;37799;52.390;6.136;2023-02-04T07:53:11;103549.00;;;5.13;100.00
37202;BME280;37799;52.390;6.136;2023-02-04T07:55:37;103557.00;;;5.20;100.00
37202;BME280;37799;52.390;6.136;2023-02-04T07:58:02;103560.75;;;5.28;100.00
37202;BME280;37799;52.390;6.136;2023-02-04T08:00:28;103561.56;;;5.27;100.00
37202;BME280;37799;52.390;6.136;2023-02-04T08:02:53;103567.84;;;5.34;100.00
37202;BME280;37799;52.390;6.136;2023-02-04T08:05:18;103571.50;;;5.41;100.00
37202;BME280;37799;52.390;6.136;2023-02-04T08:07:43;103570.94;;;5.48;100.00
37202;BME280;37799;52.390;6.136;2023-02-04T08:10:10;103574.97;;;5.63;100.00
37202;BME280;37799;52.390;6.136;2023-02-04T08:12:36;103583.94;;;5.73;100.00
37202;BME280;37799;52.390;6.136;2023-02-04T08:15:02;103582.38;;;5.78;100.00
37202;BME280;37799;52.390;6.136;2023-02-04T08:17:28;103576.38;;;5.78;100.00
37202;BME280;37799;52.390;6.136;2023-02-04T08:19:53;103594.53;;;5.82;100.00
37202;BME280;37799;52.390;6.136;2023-02-04T08:22:19;103594.63;;;5.85;100.00
37202;BME280;37799;52.390;6.136;2023-02-04T08:24:44;103600.59;;;5.84;100.00
37202;BME280;37799;52.390;6.136;2023-02-04T08:27:09;103599.03;;;5.88;100.00
37202;BME280;37799;52.390;6.136;2023-02-04T08:29:35;103602.19;;;5.81;100.00
37202;BME280;37799;52.390;6.136;2023-02-04T08:32:00;103601.81;;;5.93;100.00
37202;BME280;37799;52.390;6.136;2023-02-04T08:34:25;103608.47;;;5.87;100.00
37202;BME280;37799;52.390;6.136;2023-02-04T08:36:51;103609.38;;;5.89;100.00
37202;BME280;37799;52.390;6.136;2023-02-04T08:39:16;103616.47;;;5.95;100.00
37202;BME280;37799;52.390;6.136;2023-02-04T08:41:41;103614.72;;;5.94;100.00
37202;BME280;37799;52.390;6.136;2023-02-04T08:44:07;103617.59;;;6.02;100.00
37202;BME280;37799;52.390;6.136;2023-02-04T08:46:32;103621.97;;;6.04;100.00
37202;BME280;37799;52.390;6.136;2023-02-04T08:48:57;103621.66;;;6.19;100.00
37202;BME280;37799;52.390;6.136;2023-02-04T08:51:22;103621.13;;;6.28;100.00
37202;BME280;37799;52.390;6.136;2023-02-04T08:53:48;103632.50;;;6.34;100.00
37202;BME280;37799;52.390;6.136;2023-02-04T08:56:13;103638.16;;;6.48;100.00
37202;BME280;37799;52.390;6.136;2023-02-04T08:58:42;103629.72;;;6.52;100.00
37202;BME280;37799;52.390;6.136;2023-02-04T09:01:08;103626.81;;;6.67;100.00
37202;BME280;37799;52.390;6.136;2023-02-04T09:03:36;103628.84;;;6.77;100.00
37202;BME280;37799;52.390;6.136;2023-02-04T09:06:01;103621.88;;;6.98;100.00
37202;BME280;37799;52.390;6.136;2023-02-04T09:08:26;103624.34;;;7.21;100.00
37202;BME280;37799;52.390;6.136;2023-02-04T09:10:51;103624.44;;;7.51;100.00
37202;BME280;37799;52.390;6.136;2023-02-04T09:13:17;103627.69;;;7.72;100.00
37202;BME280;37799;52.390;6.136;2023-02-04T09:15:42;103640.31;;;7.93;100.00
37202;BME280;37799;52.390;6.136;2023-02-04T09:18:07;103637.66;;;7.90;100.00
37202;BME280;37799;52.390;6.136;2023-02-04T09:20:41;103645.13;;;8.09;100.00
37202;BME280;37799;52.390;6.136;2023-02-04T09:23:06;103644.47;;;8.16;100.00
37202;BME280;37799;52.390;6.136;2023-02-04T09:25:37;103644.69;;;8.24;100.00
37202;BME280;37799;52.390;6.136;2023-02-04T09:28:03;103640.47;;;8.27;100.00
37202;BME280;37799;52.390;6.136;2023-02-04T09:30:28;103640.31;;;8.21;100.00
37202;BME280;37799;52.390;6.136;2023-02-04T09:32:54;103642.06;;;8.22;100.00
37202;BME280;37799;52.390;6.136;2023-02-04T09:35:19;103637.00;;;8.25;100.00
37202;BME280;37799;52.390;6.136;2023-02-04T09:37:44;103633.66;;;8.29;100.00
37202;BME280;37799;52.390;6.136;2023-02-04T09:40:14;103637.63;;;8.18;100.00
37202;BME280;37799;52.390;6.136;2023-02-04T09:42:42;103647.41;;;8.28;100.00
37202;BME280;37799;52.390;6.136;2023-02-04T09:45:14;103654.69;;;8.42;100.00
37202;BME280;37799;52.390;6.136;2023-02-04T09:47:41;103652.28;;;8.48;100.00
37202;BME280;37799;52.390;6.136;2023-02-04T09:50:15;103647.72;;;8.71;100.00
37202;BME280;37799;52.390;6.136;2023-02-04T09:52:43;103654.34;;;8.93;100.00
37202;BME280;37799;52.390;6.136;2023-02-04T09:55:14;103663.66;;;8.86;100.00
37202;BME280;37799;52.390;6.136;2023-02-04T09:57:40;103659.38;;;9.21;100.00
37202;BME280;37799;52.390;6.136;2023-02-04T10:00:17;103669.69;;;9.56;100.00
37202;BME280;37799;52.390;6.136;2023-02-04T10:02:43;103680.69;;;9.83;100.00
37202;BME280;37799;52.390;6.136;2023-02-04T10:05:17;103681.06;;;10.01;100.00
37202;BME280;37799;52.390;6.136;2023-02-04T10:07:44;103687.88;;;9.96;100.00
37202;BME280;37799;52.390;6.136;2023-02-04T10:10:19;103682.38;;;9.81;100.00
37202;BME280;37799;52.390;6.136;2023-02-04T10:12:45;103685.91;;;9.86;100.00
37202;BME280;37799;52.390;6.136;2023-02-04T10:15:16;103686.59;;;9.78;100.00
37202;BME280;37799;52.390;6.136;2023-02-04T10:17:50;103686.53;;;9.76;100.00
37202;BME280;37799;52.390;6.136;2023-02-04T10:20:18;103682.41;;;9.84;100.00
37202;BME280;37799;52.390;6.136;2023-02-04T10:22:45;103694.81;;;9.97;100.00
37202;BME280;37799;52.390;6.136;2023-02-04T10:25:15;103692.97;;;9.92;100.00
37202;BME280;37799;52.390;6.136;2023-02-04T10:27:56;103698.50;;;10.09;100.00
37202;BME280;37799;52.390;6.136;2023-02-04T10:30:24;103696.78;;;10.09;100.00
37202;BME280;37799;52.390;6.136;2023-02-04T10:32:50;103696.59;;;10.01;100.00
37202;BME280;37799;52.390;6.136;2023-02-04T10:35:17;103701.31;;;9.80;100.00
37202;BME280;37799;52.390;6.136;2023-02-04T10:37:43;103697.81;;;9.78;100.00
37202;BME280;37799;52.390;6.136;2023-02-04T10:42:52;103696.03;;;10.15;100.00
37202;BME280;37799;52.390;6.136;2023-02-04T10:45:26;103698.91;;;10.27;100.00
37202;BME280;37799;52.390;6.136;2023-02-04T10:47:53;103704.44;;;10.42;100.00
37202;BME280;37799;52.390;6.136;2023-02-04T10:50:21;103700.88;;;10.39;100.00
37202;BME280;37799;52.390;6.136;2023-02-04T10:52:57;103704.44;;;10.42;100.00
37202;BME280;37799;52.390;6.136;2023-02-04T10:55:45;103707.97;;;10.47;100.00
37202;BME280;37799;52.390;6.136;2023-02-04T10:58:16;103705.19;;;10.38;100.00
37202;BME280;37799;52.390;6.136;2023-02-04T11:00:42;103709.22;;;10.24;100.00
37202;BME280;37799;52.390;6.136;2023-02-04T11:03:17;103715.03;;;10.15;100.00
37202;BME280;37799;52.390;6.136;2023-02-04T11:05:44;103716.88;;;10.19;100.00
37202;BME280;37799;52.390;6.136;2023-02-04T11:08:36;103717.69;;;10.17;100.00
37202;BME280;37799;52.390;6.136;2023-02-04T11:11:14;103715.09;;;10.17;100.00
37202;BME280;37799;52.390;6.136;2023-02-04T11:13:57;103719.47;;;10.21;100.00
37202;BME280;37799;52.390;6.136;2023-02-04T11:19:04;103709.97;;;9.82;100.00
37202;BME280;37799;52.390;6.136;2023-02-04T11:26:40;103703.28;;;9.90;100.00
37202;BME280;37799;52.390;6.136;2023-02-04T11:29:07;103706.75;;;9.91;100.00
37202;BME280;37799;52.390;6.136;2023-02-04T11:34:10;103708.66;;;9.99;100.00
37202;BME280;37799;52.390;6.136;2023-02-04T11:37:03;103708.81;;;10.07;100.00
37202;BME280;37799;52.390;6.136;2023-02-04T11:39:35;103708.66;;;9.99;100.00
37202;BME280;37799;52.390;6.136;2023-02-04T11:42:01;103708.69;;;10.02;100.00
37202;BME280;37799;52.390;6.136;2023-02-04T11:44:27;103713.19;;;10.10;100.00
37202;BME280;37799;52.390;6.136;2023-02-04T11:46:53;103709.13;;;10.21;100.00
37202;BME280;37799;52.390;6.136;2023-02-04T11:49:24;103715.50;;;10.35;100.00
37202;BME280;37799;52.390;6.136;2023-02-04T11:51:50;103717.38;;;10.42;100.00
37202;BME280;37799;52.390;6.136;2023-02-04T11:54:26;103714.91;;;10.48;100.00
37202;BME280;37799;52.390;6.136;2023-02-04T11:56:52;103715.34;;;10.70;100.00
37202;BME280;37799;52.390;6.136;2023-02-04T11:59:17;103717.19;;;10.77;100.00
37202;BME280;37799;52.390;6.136;2023-02-04T12:01:45;103707.75;;;10.80;100.00
37202;BME280;37799;52.390;6.136;2023-02-04T12:04:23;103700.16;;;10.89;100.00
37202;BME280;37799;52.390;6.136;2023-02-04T12:07:00;103699.47;;;11.00;100.00
37202;BME280;37799;52.390;6.136;2023-02-04T12:09:28;103700.78;;;10.78;100.00
37202;BME280;37799;52.390;6.136;2023-02-04T12:11:57;103698.31;;;10.82;100.00
37202;BME280;37799;52.390;6.136;2023-02-04T12:14:34;103698.38;;;10.85;100.00
37202;BME280;37799;52.390;6.136;2023-02-04T12:17:14;103700.78;;;10.78;100.00
37202;BME280;37799;52.390;6.136;2023-02-04T12:19:39;103698.28;;;11.31;100.00
37202;BME280;37799;52.390;6.136;2023-02-04T12:22:04;103695.59;;;10.76;100.00
37202;BME280;37799;52.390;6.136;2023-02-04T12:24:30;103688.56;;;10.69;100.00
37202;BME280;37799;52.390;6.136;2023-02-04T12:26:55;103689.41;;;10.68;100.00
37202;BME280;37799;52.390;6.136;2023-02-04T12:29:20;103686.84;;;10.70;100.00
37202;BME280;37799;52.390;6.136;2023-02-04T12:31:45;103688.47;;;10.66;100.00
37202;BME280;37799;52.390;6.136;2023-02-04T12:34:11;103699.63;;;10.62;100.00
37202;BME280;37799;52.390;6.136;2023-02-04T12:36:36;103701.06;;;10.46;100.00
37202;BME280;37799;52.390;6.136;2023-02-04T12:39:01;103707.25;;;10.54;100.00
37202;BME280;37799;52.390;6.136;2023-02-04T12:41:27;103704.06;;;10.68;100.00
37202;BME280;37799;52.390;6.136;2023-02-04T12:43:53;103696.63;;;10.86;100.00
37202;BME280;37799;52.390;6.136;2023-02-04T12:46:19;103704.41;;;10.84;100.00
37202;BME280;37799;52.390;6.136;2023-02-04T12:48:45;103708.34;;;11.11;100.00
37202;BME280;37799;52.390;6.136;2023-02-04T12:51:10;103706.91;;;11.30;100.00
37202;BME280;37799;52.390;6.136;2023-02-04T12:53:35;103706.19;;;11.37;100.00
37202;BME280;37799;52.390;6.136;2023-02-04T12:56:01;103709.88;;;11.51;100.00
37202;BME280;37799;52.390;6.136;2023-02-04T12:58:26;103710.06;;;11.63;100.00